ADDS METAR Data INFO
IDs: Format: Raw Decoded Include TAF

Data at: 0220 UTC 18 Jan 2018

KBOK 180156Z AUTO 15012G17KT 5SM -RA BR BKN029 OVC035 12/10 A2999 RMK AO2 SLP170 P0004 T01170100
KBOK 180056Z AUTO 16011G17KT 6SM -RA BR OVC039 12/10 A3000 RMK AO2 PK WND 15027/0004 RAB36 SLP174 P0000 T01220100
KBOK 172356Z AUTO 13017G27KT 9SM BKN050 OVC060 13/08 A3001 RMK AO2 PK WND 14027/2354 SLP176 T01330083 10144 20122 58015
KBOK 172315Z AUTO 14010G15KT 6SM HZ SCT019 OVC050 13/09 A3006 RMK AO2
KBOK 172256Z AUTO 15005KT 6SM HZ BKN019 BKN055 OVC120 13/09 A3006 RMK AO2 SLP196 T01280094
KBOK 172156Z AUTO 16007KT 10SM OVC120 13/09 A3005 RMK AO2 SLP189 T01280089
KBOK 172056Z AUTO 12006KT 8SM OVC095 13/09 A3005 RMK AO2 SLP192 T01330089 58024
KBOK 171956Z AUTO 13004KT 10SM OVC095 14/08 A3007 RMK AO2 SLP197 T01440078
KBOK 171856Z AUTO 13008KT 8SM OVC095 13/09 A3011 RMK AO2 SLP213 T01280094
KBOK 171756Z AUTO 14007KT 100V180 9SM BKN095 12/09 A3013 RMK AO2 SLP217 T01220094 10139 20100 53018
KBOK 171656Z AUTO 14011G18KT 10SM CLR 13/08 A3009 RMK AO2 SLP206 T01330078
KBOK 171556Z AUTO 13006KT 10SM SCT095 12/08 A3010 RMK AO2 SLP208 T01220083
KBOK 171456Z AUTO VRB06KT 10SM CLR 11/08 A3007 RMK AO2 SLP200 T01110078 57019
KBOK 171356Z AUTO 13005KT 10SM CLR 11/07 A3009 RMK AO2 SLP207 T01060067
KBOK 171318Z AUTO VRB05KT 10SM SCT027 11/07 A3009 RMK AO2
KBOK 171256Z AUTO 12006KT 10SM BKN027 11/07 A3011 RMK AO2 SLP214 T01060072
KBOK 171156Z AUTO VRB05KT 10SM CLR 11/07 A3013 RMK AO2 SLP219 60000 T01110067 10117 20106 56007
KBOK 171056Z AUTO 12004KT 10SM OVC060 12/06 A3015 RMK AO2 SLP224 T01170056
KBOK 170956Z AUTO VRB05KT 10SM OVC070 11/07 A3013 RMK AO2 SLP219 T01110067
KBOK 170856Z AUTO 11005KT 10SM BKN060 OVC080 11/08 A3015 RMK AO2 RAB0758E16 SLP226 P0000 60000 T01110083 58013
KBOK 170756Z AUTO 13005KT 10SM OVC070 11/08 A3020 RMK AO2 SLP242 T01110078 401440089
KBOK 170656Z AUTO 12004KT 10SM OVC085 11/08 A3019 RMK AO2 RAB25E42 SLP240 P0000 T01060078
KBOK 170556Z AUTO 12005KT 10SM BKN110 11/08 A3019 RMK AO2 SLP241 T01060083 10133 20089 58003
KBOK 170456Z AUTO 10003KT 10SM CLR 09/09 A3021 RMK AO2 SLP248 T00940089
KBOK 170356Z AUTO 12004KT 10SM CLR 09/08 A3021 RMK AO2 SLP249 T00940083
KBOK 170256Z AUTO 13003KT 9SM CLR 10/08 A3020 RMK AO2 SLP245 T01000083 53004
KBOK 170156Z AUTO 00000KT 10SM CLR 09/08 A3019 RMK AO2 SLP242 T00940078
KBOK 170056Z AUTO 00000KT 10SM CLR 11/09 A3019 RMK AO2 SLP239 T01110094
KBOK 162356Z AUTO 16004KT 10SM CLR 13/08 A3019 RMK AO2 SLP239 T01330078 10144 20100 58015
KBOK 162256Z AUTO 15005KT 10SM CLR 13/07 A3021 RMK AO2 SLP246 T01330072
KBOK 162156Z AUTO 14005KT 10SM CLR 14/07 A3023 RMK AO2 SLP251 T01390072
KBOK 162056Z AUTO 15006KT 10SM CLR 14/08 A3024 RMK AO2 SLP254 T01440083 58010
KBOK 161956Z AUTO VRB04KT 10SM CLR 12/08 A3025 RMK AO2 SLP260 T01220083
KBOK 161856Z AUTO VRB03KT 10SM CLR 11/09 A3027 RMK AO2 SLP266 T01110089
KBOK 161756Z AUTO VRB03KT 10SM CLR 11/09 A3026 RMK AO2 SLP265 T01060089 10106 20089 53017
KBOK 161656Z AUTO 10003KT 7SM CLR 09/09 A3025 RMK AO2 SLP262 T00890089
KBOK 161556Z AUTO 10003KT 6SM BR CLR 09/08 A3022 RMK AO2 SLP252 T00890083
KBOK 161456Z AUTO 09003KT 8SM FEW012 SCT024 09/09 A3021 RMK AO2 SLP248 T00940089 53001
KBOK 161447Z AUTO 08003KT 7SM FEW012 BKN024 09/09 A3021 RMK AO2
KBOK 161421Z AUTO 10003KT 9SM FEW024 09/09 A3021 RMK AO2